Time;durP1;ratioP1;P1;durP2;ratioP2;P2;SDS_P1;SDS_P2;PMS_P1;PMS_P2;Temp;Humidity;BMP_temperature;BMP_pressure;BME280_temperature;BME280_humidity;BME280_pressure;Samples;Min_cycle;Max_cycle;Signal;HPM_P1;HPM_P2
2024/01/09 00:01:32;;;;;;;3.77;3.37;;;-2.90;99.90;;;;;;4979025;28;20565;-62
2024/01/09 00:04:00;;;;;;;4.57;3.30;;;-2.90;99.90;;;;;;4974055;28;20532;-63
2024/01/09 00:06:29;;;;;;;4.27;3.27;;;-2.90;99.90;;;;;;4981292;28;20489;-63
2024/01/09 00:08:58;;;;;;;2.80;2.60;;;-3.00;99.90;;;;;;4975490;28;21234;-63
2024/01/09 00:11:26;;;;;;;3.73;2.83;;;-3.00;99.90;;;;;;4978836;28;20477;-63
2024/01/09 00:13:54;;;;;;;3.57;2.57;;;-3.00;99.90;;;;;;4985707;28;20473;-63
2024/01/09 00:16:23;;;;;;;3.63;3.33;;;-3.10;99.90;;;;;;4980764;28;20469;-62
2024/01/09 00:18:53;;;;;;;4.80;3.07;;;-3.10;99.90;;;;;;4982238;28;20513;-63
2024/01/09 00:21:22;;;;;;;3.03;2.67;;;-3.10;99.90;;;;;;4980462;28;20476;-63
2024/01/09 00:23:51;;;;;;;4.87;3.20;;;-3.10;99.90;;;;;;4977239;28;20488;-64
2024/01/09 00:26:20;;;;;;;4.13;3.10;;;-3.10;99.90;;;;;;4975412;28;20499;-63
2024/01/09 00:28:48;;;;;;;4.03;2.80;;;-3.20;99.90;;;;;;4965024;28;20465;-62
2024/01/09 00:31:16;;;;;;;3.43;2.87;;;-3.20;99.90;;;;;;4983043;28;20564;-61
2024/01/09 00:33:45;;;;;;;4.60;3.00;;;-3.30;99.90;;;;;;4998670;28;20753;-61
2024/01/09 00:36:13;;;;;;;3.90;2.80;;;-3.30;99.90;;;;;;4994885;28;20469;-62
2024/01/09 00:38:41;;;;;;;3.10;2.80;;;-3.30;99.90;;;;;;4978590;28;20692;-62
2024/01/09 00:41:10;;;;;;;4.60;3.23;;;-3.40;99.90;;;;;;4981490;28;20503;-62
2024/01/09 00:43:38;;;;;;;5.50;3.20;;;-3.40;99.90;;;;;;4975803;28;20488;-62
2024/01/09 00:46:06;;;;;;;4.00;3.13;;;-3.40;99.90;;;;;;4975569;28;20587;-62
2024/01/09 00:48:35;;;;;;;3.50;3.10;;;-3.40;99.90;;;;;;4977991;28;21150;-63
2024/01/09 00:51:03;;;;;;;4.17;3.40;;;-3.50;99.90;;;;;;4979661;28;20500;-63
2024/01/09 00:53:31;;;;;;;4.40;3.50;;;-3.50;99.90;;;;;;4982510;28;20563;-62
2024/01/09 00:55:59;;;;;;;5.43;3.40;;;-3.50;99.90;;;;;;4971369;28;20911;-63
2024/01/09 00:58:29;;;;;;;3.87;3.10;;;-3.60;99.90;;;;;;4982443;28;20895;-63
2024/01/09 01:00:57;;;;;;;5.47;4.00;;;-3.60;99.90;;;;;;4983148;28;20484;-62
2024/01/09 01:03:25;;;;;;;3.70;2.83;;;-3.60;99.90;;;;;;4993459;28;20513;-61
2024/01/09 01:05:53;;;;;;;3.43;3.13;;;-3.60;99.90;;;;;;4991165;28;20500;-62
2024/01/09 01:08:21;;;;;;;3.97;3.27;;;-3.60;99.90;;;;;;5002122;28;20473;-63
2024/01/09 01:10:49;;;;;;;3.57;3.10;;;-3.60;99.90;;;;;;4996049;28;20477;-62
2024/01/09 01:13:17;;;;;;;5.17;3.57;;;-3.60;99.90;;;;;;4972377;28;20568;-62
2024/01/09 01:15:47;;;;;;;5.50;2.97;;;-3.60;99.90;;;;;;4973101;28;21057;-63
2024/01/09 01:18:15;;;;;;;4.20;3.30;;;-3.70;99.90;;;;;;4974092;28;21072;-63
2024/01/09 01:20:43;;;;;;;5.00;3.67;;;-3.70;99.90;;;;;;4981856;28;20493;-63
2024/01/09 01:23:11;;;;;;;4.37;3.03;;;-3.70;99.90;;;;;;4972586;28;20492;-63
2024/01/09 01:25:39;;;;;;;4.83;3.37;;;-3.70;99.90;;;;;;4976283;28;20497;-61
2024/01/09 01:28:07;;;;;;;3.87;3.27;;;-3.70;99.90;;;;;;4976052;28;20473;-63
2024/01/09 01:30:35;;;;;;;4.77;3.53;;;-3.70;99.90;;;;;;4977812;28;20499;-62
2024/01/09 01:33:04;;;;;;;5.53;3.70;;;-3.70;99.90;;;;;;4982273;28;20481;-62
2024/01/09 01:35:32;;;;;;;4.63;3.57;;;-3.70;99.90;;;;;;4974946;28;20477;-63
2024/01/09 01:38:00;;;;;;;3.93;3.10;;;-3.80;99.90;;;;;;4973382;28;20468;-62
2024/01/09 01:40:28;;;;;;;3.53;3.17;;;-3.70;99.90;;;;;;4976266;28;20519;-62
2024/01/09 01:42:57;;;;;;;3.87;3.20;;;-3.80;99.90;;;;;;4970117;28;20563;-62
2024/01/09 01:45:27;;;;;;;3.87;3.20;;;-3.80;99.90;;;;;;4969728;28;20473;-62
2024/01/09 01:47:56;;;;;;;4.70;3.57;;;-3.80;99.90;;;;;;4977111;28;20491;-62
2024/01/09 01:50:26;;;;;;;5.13;4.43;;;-3.80;99.90;;;;;;4979749;28;21221;-61
2024/01/09 01:52:54;;;;;;;6.00;3.60;;;-3.80;99.90;;;;;;5009370;28;20472;-63
2024/01/09 01:55:24;;;;;;;3.40;2.83;;;-3.80;99.90;;;;;;4992065;28;20508;-63
2024/01/09 01:57:54;;;;;;;3.53;3.10;;;-3.80;99.90;;;;;;4980719;28;20461;-63
2024/01/09 02:00:25;;;;;;;4.53;3.40;;;-3.90;99.90;;;;;;4972419;28;20583;-63
2024/01/09 02:02:54;;;;;;;4.23;3.33;;;-3.90;99.90;;;;;;4979469;28;20560;-61
2024/01/09 02:05:25;;;;;;;3.97;3.50;;;-3.90;99.90;;;;;;4978353;28;20487;-62
2024/01/09 02:07:54;;;;;;;5.50;3.90;;;-3.90;99.90;;;;;;4972073;28;20529;-63
2024/01/09 02:10:23;;;;;;;5.73;3.40;;;-3.90;99.90;;;;;;4978582;28;20536;-65
2024/01/09 02:12:51;;;;;;;5.90;3.77;;;-3.90;99.90;;;;;;4971783;28;20608;-62
2024/01/09 02:15:19;;;;;;;4.97;4.10;;;-3.90;99.90;;;;;;4978099;28;20556;-63
2024/01/09 02:17:47;;;;;;;5.13;4.00;;;-3.90;99.90;;;;;;4980814;28;21080;-63
2024/01/09 02:20:16;;;;;;;5.47;3.97;;;-4.00;99.90;;;;;;4979667;28;20508;-63
2024/01/09 02:22:44;;;;;;;4.90;4.00;;;-4.00;99.90;;;;;;4986915;28;20576;-61
2024/01/09 02:25:13;;;;;;;5.20;4.10;;;-4.00;99.90;;;;;;4982342;28;21259;-63
2024/01/09 02:27:57;;;;;;;6.53;3.43;;;-4.00;99.90;;;;;;4982874;28;20598;-62
2024/01/09 02:30:27;;;;;;;4.13;3.43;;;-4.00;99.90;;;;;;4987969;28;20520;-63
2024/01/09 02:32:55;;;;;;;4.47;4.07;;;-4.10;99.90;;;;;;4978011;28;20481;-62
2024/01/09 02:35:23;;;;;;;5.70;3.57;;;-4.10;99.90;;;;;;4982213;28;20986;-63
2024/01/09 02:37:51;;;;;;;4.00;3.37;;;-4.10;99.90;;;;;;4983852;28;20571;-65
2024/01/09 02:40:19;;;;;;;5.20;3.67;;;-4.10;99.90;;;;;;4976218;28;20578;-63
2024/01/09 02:42:48;;;;;;;4.63;3.60;;;-4.20;99.90;;;;;;4976000;28;20858;-63
2024/01/09 02:45:16;;;;;;;6.30;4.20;;;-4.20;99.90;;;;;;4973937;28;20889;-63
2024/01/09 02:47:45;;;;;;;4.43;4.03;;;-4.20;99.90;;;;;;4974303;28;20533;-62
2024/01/09 02:50:13;;;;;;;7.17;5.50;;;-4.20;99.90;;;;;;4976368;28;20506;-61
2024/01/09 02:52:41;;;;;;;3.90;3.40;;;-4.30;99.90;;;;;;4975239;28;20488;-63
2024/01/09 02:55:09;;;;;;;4.30;3.90;;;-4.30;99.90;;;;;;4972489;28;20484;-62
2024/01/09 02:57:40;;;;;;;5.00;3.63;;;-4.30;99.90;;;;;;4977593;28;20959;-61
2024/01/09 03:00:09;;;;;;;4.67;4.07;;;-4.30;99.90;;;;;;4977581;28;21575;-63
2024/01/09 03:02:38;;;;;;;4.40;4.00;;;-4.30;99.90;;;;;;4981436;28;21080;-63
2024/01/09 03:05:08;;;;;;;3.30;3.00;;;-4.40;99.90;;;;;;4984195;28;20476;-61
2024/01/09 03:07:36;;;;;;;4.93;3.40;;;-4.40;99.90;;;;;;4979034;28;20736;-63
2024/01/09 03:10:06;;;;;;;3.60;3.30;;;-4.40;99.90;;;;;;4969476;28;20575;-60
2024/01/09 03:12:34;;;;;;;4.43;3.70;;;-4.30;99.90;;;;;;4977648;28;20633;-61
2024/01/09 03:15:01;;;;;;;4.73;3.63;;;-4.30;99.90;;;;;;4987344;28;20484;-62
2024/01/09 03:17:29;;;;;;;6.17;4.20;;;-4.30;99.90;;;;;;4982182;28;20457;-63
2024/01/09 03:19:58;;;;;;;4.20;3.33;;;-4.30;99.90;;;;;;4978677;28;20489;-62
2024/01/09 03:22:27;;;;;;;4.53;3.90;;;-4.40;99.90;;;;;;4982559;28;20551;-63
2024/01/09 03:24:55;;;;;;;4.90;3.40;;;-4.40;99.90;;;;;;4980644;28;20476;-63
2024/01/09 03:27:23;;;;;;;4.40;3.87;;;-4.40;99.90;;;;;;4984147;28;20862;-63
2024/01/09 03:29:51;;;;;;;4.90;3.40;;;-4.40;99.90;;;;;;4981817;28;20497;-61
2024/01/09 03:32:19;;;;;;;4.20;3.70;;;-4.40;99.90;;;;;;4980333;28;20524;-61
2024/01/09 03:34:47;;;;;;;4.93;4.17;;;-4.40;99.90;;;;;;4979694;28;20571;-61
2024/01/09 03:37:15;;;;;;;4.67;3.70;;;-4.40;99.90;;;;;;4976190;28;20544;-61
2024/01/09 03:39:47;;;;;;;5.30;4.20;;;-4.40;99.90;;;;;;4976511;28;21089;-59
2024/01/09 03:42:15;;;;;;;4.13;3.73;;;-4.40;99.90;;;;;;4974052;28;20591;-61
2024/01/09 03:44:43;;;;;;;6.87;4.30;;;-4.40;99.90;;;;;;4982926;28;21068;-60
2024/01/09 03:47:11;;;;;;;5.00;4.50;;;-4.50;99.90;;;;;;4979960;28;20499;-61
2024/01/09 03:49:39;;;;;;;5.20;4.60;;;-4.50;99.90;;;;;;4976610;28;20860;-60
2024/01/09 03:52:07;;;;;;;5.20;4.67;;;-4.50;99.90;;;;;;4984360;28;20576;-63
2024/01/09 03:54:35;;;;;;;4.40;4.00;;;-4.50;99.90;;;;;;4979715;28;20477;-61
2024/01/09 03:57:04;;;;;;;4.67;3.80;;;-4.50;99.90;;;;;;4982859;28;20556;-62
2024/01/09 03:59:32;;;;;;;6.23;4.87;;;-4.40;99.90;;;;;;4980224;28;20492;-61
2024/01/09 04:02:00;;;;;;;6.77;4.53;;;-4.50;99.90;;;;;;4987107;28;20484;-62
2024/01/09 04:04:28;;;;;;;6.17;4.87;;;-4.50;99.90;;;;;;5001796;28;20481;-61
2024/01/09 04:06:56;;;;;;;6.63;4.80;;;-4.50;99.90;;;;;;5003890;28;20484;-65
2024/01/09 04:09:25;;;;;;;6.33;4.90;;;-4.50;99.90;;;;;;4978390;28;20579;-61
2024/01/09 04:11:53;;;;;;;6.00;4.90;;;-4.60;99.90;;;;;;4978704;28;20469;-62
2024/01/09 04:14:22;;;;;;;6.50;4.80;;;-4.60;99.90;;;;;;4980264;28;20496;-62
2024/01/09 04:16:50;;;;;;;7.10;5.43;;;-4.60;99.90;;;;;;4976738;28;20974;-61
2024/01/09 04:19:18;;;;;;;6.00;5.40;;;-4.60;99.90;;;;;;4979847;28;21049;-61
2024/01/09 04:21:46;;;;;;;5.93;5.10;;;-4.60;99.90;;;;;;4978112;28;21025;-62
2024/01/09 04:24:14;;;;;;;6.60;5.27;;;-4.60;99.90;;;;;;4986363;28;20531;-61
2024/01/09 04:26:42;;;;;;;6.90;4.97;;;-4.60;99.90;;;;;;4977116;28;20472;-62
2024/01/09 04:29:10;;;;;;;6.40;4.60;;;-4.60;99.90;;;;;;4976416;28;21014;-62
2024/01/09 04:31:40;;;;;;;5.47;4.87;;;-4.60;99.90;;;;;;4987123;28;20461;-61
2024/01/09 04:34:08;;;;;;;6.50;5.27;;;-4.70;99.90;;;;;;5005118;28;20488;-60
2024/01/09 04:36:37;;;;;;;8.77;5.77;;;-4.70;99.90;;;;;;5000486;28;21046;-60
2024/01/09 04:39:05;;;;;;;7.23;5.53;;;-4.70;99.90;;;;;;4996545;28;20477;-61
2024/01/09 04:41:33;;;;;;;9.30;5.37;;;-4.70;99.90;;;;;;4988902;28;20481;-60
2024/01/09 04:44:01;;;;;;;6.07;5.00;;;-4.70;99.90;;;;;;4980217;28;21069;-63
2024/01/09 04:46:29;;;;;;;6.63;5.23;;;-4.70;99.90;;;;;;4977974;28;20501;-62
2024/01/09 04:48:58;;;;;;;11.30;5.83;;;-4.70;99.90;;;;;;4982332;28;20503;-61
2024/01/09 04:51:26;;;;;;;7.20;5.80;;;-4.80;99.90;;;;;;4982434;28;20480;-61
2024/01/09 04:53:54;;;;;;;6.27;5.67;;;-4.80;99.90;;;;;;4978076;28;20603;-61
2024/01/09 04:56:22;;;;;;;6.57;5.97;;;-4.80;99.90;;;;;;4986567;28;20559;-60
2024/01/09 04:58:53;;;;;;;10.03;6.50;;;-4.80;99.90;;;;;;4998879;28;20881;-60
2024/01/09 05:01:29;;;;;;;6.53;5.53;;;-4.80;99.90;;;;;;5104349;27;23426;-60
2024/01/09 05:03:57;;;;;;;6.90;5.53;;;-4.80;99.90;;;;;;5056982;28;20778;-61
2024/01/09 05:06:25;;;;;;;6.53;5.43;;;-4.80;99.90;;;;;;5053222;28;20480;-61
2024/01/09 05:08:53;;;;;;;6.20;5.60;;;-4.80;99.90;;;;;;5054651;28;21063;-61
2024/01/09 05:11:21;;;;;;;6.50;5.80;;;-4.80;99.90;;;;;;5044308;28;20649;-61
2024/01/09 05:13:49;;;;;;;6.20;5.57;;;-4.80;99.90;;;;;;5040618;28;20489;-62
2024/01/09 05:16:17;;;;;;;7.50;5.53;;;-4.80;99.90;;;;;;5045237;28;20477;-61
2024/01/09 05:18:47;;;;;;;6.33;5.73;;;-4.80;99.90;;;;;;5047171;28;20470;-62
2024/01/09 05:21:15;;;;;;;7.10;6.10;;;-4.80;99.90;;;;;;5049059;28;20486;-61
2024/01/09 05:23:43;;;;;;;8.23;6.20;;;-4.80;99.90;;;;;;5050152;28;20482;-61
2024/01/09 05:26:11;;;;;;;8.50;6.50;;;-4.90;99.90;;;;;;5041316;28;20476;-61
2024/01/09 05:28:39;;;;;;;7.83;6.23;;;-4.90;99.90;;;;;;5047473;28;20986;-63
2024/01/09 05:31:07;;;;;;;6.70;6.00;;;-4.90;99.90;;;;;;5041263;28;22227;-62
2024/01/09 05:33:36;;;;;;;7.77;6.07;;;-4.90;99.90;;;;;;5044976;28;20922;-62
2024/01/09 05:36:07;;;;;;;7.70;5.87;;;-4.90;99.90;;;;;;5046475;28;20482;-61
2024/01/09 05:38:36;;;;;;;6.17;5.57;;;-4.90;99.90;;;;;;5046738;28;20846;-61
2024/01/09 05:41:04;;;;;;;9.77;6.20;;;-4.90;99.90;;;;;;5041369;28;21190;-62
2024/01/09 05:43:32;;;;;;;7.23;5.90;;;-4.90;99.90;;;;;;5046239;28;20564;-61
2024/01/09 05:46:00;;;;;;;9.13;6.80;;;-4.90;99.90;;;;;;5048470;28;20478;-63
2024/01/09 05:48:28;;;;;;;6.37;5.70;;;-5.00;99.90;;;;;;5043572;28;20916;-62
2024/01/09 05:50:56;;;;;;;7.53;6.73;;;-5.00;99.90;;;;;;5044242;28;20509;-62
2024/01/09 05:53:26;;;;;;;7.10;5.90;;;-4.90;99.90;;;;;;5025121;28;20910;-63
2024/01/09 05:55:53;;;;;;;9.37;7.07;;;-5.00;99.90;;;;;;5023326;28;20885;-62
2024/01/09 05:58:21;;;;;;;8.67;7.00;;;-5.00;99.90;;;;;;5025631;28;20467;-63
2024/01/09 06:00:49;;;;;;;9.60;6.97;;;-5.00;99.90;;;;;;5029697;28;20525;-62
2024/01/09 06:03:17;;;;;;;10.93;6.37;;;-5.00;99.90;;;;;;5021780;28;20490;-62
2024/01/09 06:05:46;;;;;;;7.00;6.30;;;-4.90;99.90;;;;;;5026180;28;20474;-62
2024/01/09 06:08:14;;;;;;;9.17;6.70;;;-4.90;99.90;;;;;;5026098;28;20972;-61
2024/01/09 06:10:44;;;;;;;7.40;6.20;;;-4.90;99.90;;;;;;5021226;28;20538;-62
2024/01/09 06:13:12;;;;;;;7.87;6.70;;;-4.90;99.90;;;;;;5007796;28;20490;-62
2024/01/09 06:15:40;;;;;;;9.00;6.53;;;-4.90;99.90;;;;;;5020407;28;20901;-60
2024/01/09 06:18:08;;;;;;;9.60;7.00;;;-5.00;99.90;;;;;;5024765;28;20495;-61
2024/01/09 06:20:36;;;;;;;8.10;6.57;;;-4.90;99.90;;;;;;5014439;28;20488;-62
2024/01/09 06:23:05;;;;;;;11.57;6.93;;;-4.90;99.90;;;;;;5014402;28;20815;-59
2024/01/09 06:25:33;;;;;;;7.40;6.70;;;-5.00;99.90;;;;;;5009002;28;20530;-61
2024/01/09 06:28:02;;;;;;;8.43;6.80;;;-5.00;99.90;;;;;;5013644;28;20525;-62
2024/01/09 06:30:34;;;;;;;8.97;6.70;;;-5.00;99.90;;;;;;5010761;28;20621;-61
2024/01/09 06:33:02;;;;;;;8.27;6.83;;;-5.00;99.90;;;;;;5010893;28;20522;-62
2024/01/09 06:35:30;;;;;;;9.03;7.20;;;-4.90;99.90;;;;;;5016416;28;20550;-62
2024/01/09 06:37:58;;;;;;;10.37;8.00;;;-5.00;99.90;;;;;;5004070;28;20467;-61
2024/01/09 06:40:27;;;;;;;9.77;8.20;;;-5.00;99.90;;;;;;5004370;28;20503;-62
2024/01/09 06:42:55;;;;;;;11.17;8.60;;;-5.00;99.90;;;;;;5012343;28;20828;-62
2024/01/09 06:45:24;;;;;;;8.60;7.10;;;-5.00;99.90;;;;;;5003267;28;20561;-61
2024/01/09 06:47:52;;;;;;;9.00;8.00;;;-5.00;99.90;;;;;;5008475;28;20542;-61
2024/01/09 06:50:20;;;;;;;9.27;7.37;;;-5.00;99.90;;;;;;5005516;28;20496;-62
2024/01/09 06:53:04;;;;;;;8.43;7.30;;;-5.00;99.90;;;;;;5014762;28;21245;-62
2024/01/09 06:55:32;;;;;;;9.87;7.97;;;-4.90;99.90;;;;;;5017955;28;20475;-62
2024/01/09 06:58:00;;;;;;;9.27;7.97;;;-5.00;99.90;;;;;;5011699;28;20990;-62
2024/01/09 07:00:29;;;;;;;10.50;7.43;;;-4.90;99.90;;;;;;5012316;28;20495;-63
2024/01/09 07:02:58;;;;;;;9.13;7.47;;;-5.00;99.90;;;;;;5016240;28;21730;-62
2024/01/09 07:05:26;;;;;;;9.23;6.80;;;-5.00;99.90;;;;;;5022578;28;20483;-62
2024/01/09 07:07:54;;;;;;;8.87;7.00;;;-5.00;99.90;;;;;;5026979;28;20859;-62
2024/01/09 07:10:22;;;;;;;8.33;6.90;;;-5.00;99.90;;;;;;5027555;28;21235;-61
2024/01/09 07:12:50;;;;;;;9.10;6.47;;;-5.00;99.90;;;;;;5019702;28;20480;-62
2024/01/09 07:15:19;;;;;;;8.90;7.03;;;-5.10;99.90;;;;;;5032081;28;20480;-61
2024/01/09 07:17:48;;;;;;;9.90;7.60;;;-5.10;99.90;;;;;;5027178;28;20459;-62
2024/01/09 07:20:17;;;;;;;7.70;6.90;;;-5.00;99.90;;;;;;5038498;28;20487;-62
2024/01/09 07:22:45;;;;;;;7.73;6.93;;;-5.10;99.90;;;;;;5023750;28;20482;-62
2024/01/09 07:25:16;;;;;;;8.83;7.00;;;-5.00;99.90;;;;;;5036787;28;21077;-61
2024/01/09 07:27:44;;;;;;;9.70;8.03;;;-5.00;99.90;;;;;;5027668;28;20940;-61
2024/01/09 07:30:14;;;;;;;10.13;7.33;;;-5.00;99.90;;;;;;5023974;28;20495;-61
2024/01/09 07:32:42;;;;;;;10.57;7.80;;;-5.00;99.90;;;;;;5026297;28;20987;-62
2024/01/09 07:35:11;;;;;;;10.10;7.70;;;-5.00;99.90;;;;;;5030223;28;20482;-61
2024/01/09 07:37:39;;;;;;;12.10;8.00;;;-5.00;99.90;;;;;;5037577;28;20498;-62
2024/01/09 07:40:09;;;;;;;9.90;8.10;;;-5.00;99.90;;;;;;5037134;28;20499;-62
2024/01/09 07:42:37;;;;;;;10.33;7.73;;;-4.90;99.90;;;;;;5031398;28;20486;-62
2024/01/09 07:45:20;;;;;;;11.67;8.00;;;-4.90;99.90;;;;;;5029896;28;20470;-61
2024/01/09 07:47:48;;;;;;;13.37;9.30;;;-4.90;99.90;;;;;;5029711;28;20529;-61
2024/01/09 07:50:18;;;;;;;10.00;8.27;;;-4.90;99.90;;;;;;5027342;28;21020;-62
2024/01/09 07:52:47;;;;;;;12.07;8.60;;;-4.90;99.90;;;;;;5020970;28;20490;-61
2024/01/09 07:55:15;;;;;;;10.77;7.70;;;-4.90;99.90;;;;;;5034624;28;20558;-62
2024/01/09 07:57:43;;;;;;;11.23;8.20;;;-4.80;99.90;;;;;;5027295;28;20507;-63
2024/01/09 08:00:12;;;;;;;9.17;8.17;;;-4.90;99.90;;;;;;5033081;28;20523;-62
2024/01/09 08:02:40;;;;;;;10.07;8.40;;;-4.90;99.90;;;;;;5025429;28;20935;-62
2024/01/09 08:05:08;;;;;;;9.97;8.10;;;-4.80;99.90;;;;;;5029024;28;20478;-64
2024/01/09 08:07:38;;;;;;;10.83;8.10;;;-4.80;99.90;;;;;;5025383;28;20561;-62
2024/01/09 08:10:07;;;;;;;12.00;9.00;;;-4.80;99.90;;;;;;5036037;28;20565;-63
2024/01/09 08:12:35;;;;;;;14.43;10.00;;;-4.80;99.90;;;;;;5030892;28;20965;-62
2024/01/09 08:15:03;;;;;;;11.50;10.03;;;-4.80;99.90;;;;;;5039606;28;20951;-63
2024/01/09 08:17:31;;;;;;;13.37;10.93;;;-4.80;99.90;;;;;;5030576;28;20470;-63
2024/01/09 08:20:00;;;;;;;15.60;11.33;;;-4.80;99.90;;;;;;5038259;28;20489;-61
2024/01/09 08:22:28;;;;;;;12.87;10.30;;;-4.80;99.90;;;;;;5033066;28;20472;-62
2024/01/09 08:24:58;;;;;;;12.80;10.17;;;-4.70;99.90;;;;;;5023852;28;20518;-62
2024/01/09 08:27:26;;;;;;;12.10;9.87;;;-4.80;99.90;;;;;;5026563;28;20471;-62
2024/01/09 08:29:54;;;;;;;14.23;10.20;;;-4.70;99.90;;;;;;5054267;28;20498;-61
2024/01/09 08:32:22;;;;;;;13.77;10.33;;;-4.70;99.90;;;;;;5048062;28;20499;-61
2024/01/09 08:34:51;;;;;;;11.57;8.80;;;-4.70;99.90;;;;;;5035516;28;20495;-61
2024/01/09 08:37:19;;;;;;;11.53;9.10;;;-4.70;99.90;;;;;;5035014;28;20478;-62
2024/01/09 08:39:47;;;;;;;14.67;9.67;;;-4.60;99.90;;;;;;5028916;28;20531;-61
2024/01/09 08:42:17;;;;;;;13.90;9.60;;;-4.60;99.90;;;;;;5034861;28;20478;-62
2024/01/09 08:44:45;;;;;;;15.00;10.87;;;-4.60;99.90;;;;;;5031958;28;20477;-62
2024/01/09 08:47:13;;;;;;;14.50;10.60;;;-4.60;99.90;;;;;;5034862;28;20478;-62
2024/01/09 08:49:41;;;;;;;12.87;10.50;;;-4.60;99.90;;;;;;5024995;28;20577;-62
2024/01/09 08:52:09;;;;;;;11.33;9.60;;;-4.50;99.90;;;;;;5025337;28;20483;-61
2024/01/09 08:54:37;;;;;;;13.63;10.60;;;-4.50;99.90;;;;;;5031451;28;20507;-62
2024/01/09 08:57:06;;;;;;;13.10;9.47;;;-4.50;99.90;;;;;;5035748;28;20475;-62
2024/01/09 08:59:35;;;;;;;12.80;9.73;;;-4.40;99.90;;;;;;5032803;28;20497;-62
2024/01/09 09:02:04;;;;;;;14.03;9.40;;;-4.40;99.90;;;;;;5025237;28;21087;-62
2024/01/09 09:04:31;;;;;;;12.07;9.10;;;-4.30;99.90;;;;;;5026051;28;20557;-64
2024/01/09 09:07:00;;;;;;;15.37;8.97;;;-4.30;99.90;;;;;;5024495;28;20494;-64
2024/01/09 09:09:28;;;;;;;13.70;9.43;;;-4.30;99.90;;;;;;5035325;28;21452;-64
2024/01/09 09:11:56;;;;;;;13.13;9.33;;;-4.30;99.90;;;;;;5028523;28;20525;-64
2024/01/09 09:14:24;;;;;;;13.17;9.43;;;-4.20;99.90;;;;;;5027219;28;20475;-64
2024/01/09 09:16:53;;;;;;;12.83;9.77;;;-4.20;99.90;;;;;;5023931;28;20459;-64
2024/01/09 09:19:22;;;;;;;11.80;8.47;;;-4.10;99.90;;;;;;5025665;28;20528;-64
2024/01/09 09:21:51;;;;;;;11.47;8.70;;;-4.10;99.90;;;;;;5024358;28;20467;-64
2024/01/09 09:24:19;;;;;;;12.00;9.20;;;-4.10;99.90;;;;;;5026785;28;20463;-65
2024/01/09 09:26:47;;;;;;;13.73;8.87;;;-4.00;99.90;;;;;;5029841;28;20566;-65
2024/01/09 09:29:15;;;;;;;11.90;8.70;;;-4.00;99.90;;;;;;5038112;28;20555;-65
2024/01/09 09:32:00;;;;;;;11.90;8.97;;;-4.00;99.90;;;;;;5043598;28;20474;-65
2024/01/09 09:34:28;;;;;;;11.57;8.47;;;-3.90;99.90;;;;;;5040089;28;20462;-65
2024/01/09 09:36:56;;;;;;;15.00;9.87;;;-3.80;99.90;;;;;;5033723;28;20838;-65
2024/01/09 09:39:26;;;;;;;12.90;9.87;;;-3.80;99.90;;;;;;5025634;28;20589;-65
2024/01/09 09:41:57;;;;;;;12.00;9.63;;;-3.70;99.90;;;;;;5021345;28;23511;-66
2024/01/09 09:44:26;;;;;;;12.13;9.70;;;-3.70;99.90;;;;;;5025478;28;20980;-67
2024/01/09 09:46:55;;;;;;;11.87;9.67;;;-3.70;99.90;;;;;;5027402;28;20549;-66
2024/01/09 09:49:25;;;;;;;11.90;9.30;;;-3.60;99.90;;;;;;5030585;28;20521;-66
2024/01/09 09:51:54;;;;;;;13.43;10.07;;;-3.60;99.90;;;;;;5026053;28;20463;-66
2024/01/09 09:54:23;;;;;;;11.83;9.00;;;-3.50;99.90;;;;;;5032652;28;20469;-66
2024/01/09 09:56:52;;;;;;;12.90;9.40;;;-3.50;99.90;;;;;;5030420;28;20482;-66
2024/01/09 09:59:20;;;;;;;9.33;8.33;;;-3.40;99.90;;;;;;5035321;28;20486;-66
2024/01/09 10:01:48;;;;;;;11.23;9.00;;;-3.40;99.90;;;;;;5032291;28;20549;-66
2024/01/09 10:04:30;;;;;;;10.00;7.70;;;-3.30;99.90;;;;;;5031212;28;20844;-66
2024/01/09 10:06:59;;;;;;;11.27;7.93;;;-3.20;99.90;;;;;;5032515;28;20649;-66
2024/01/09 10:09:33;;;;;;;9.40;7.80;;;-3.20;99.90;;;;;;5035948;28;20490;-66
2024/01/09 10:12:01;;;;;;;11.13;8.60;;;-3.10;99.90;;;;;;5029550;28;20980;-66
2024/01/09 10:14:29;;;;;;;9.30;8.00;;;-3.10;99.90;;;;;;5036783;28;20521;-65
2024/01/09 10:16:59;;;;;;;9.37;7.87;;;-3.00;99.90;;;;;;5041683;28;20466;-66
2024/01/09 10:19:29;;;;;;;9.63;8.50;;;-3.00;99.90;;;;;;5030850;28;20494;-66
2024/01/09 10:21:57;;;;;;;8.40;6.93;;;-2.90;99.90;;;;;;5025922;28;20550;-66
2024/01/09 10:24:26;;;;;;;9.63;8.13;;;-2.80;99.90;;;;;;5042199;28;20725;-67
2024/01/09 10:26:55;;;;;;;9.20;7.10;;;-2.80;99.90;;;;;;5058101;28;20776;-66
2024/01/09 10:29:24;;;;;;;9.03;7.40;;;-2.70;99.90;;;;;;5059400;28;20938;-66
2024/01/09 10:31:52;;;;;;;9.17;6.60;;;-2.60;99.90;;;;;;5057420;28;21059;-65
2024/01/09 10:34:20;;;;;;;9.00;6.90;;;-2.60;99.90;;;;;;5044687;28;20497;-65
2024/01/09 10:36:50;;;;;;;8.27;6.83;;;-2.50;99.90;;;;;;5025770;28;20471;-65
2024/01/09 10:39:18;;;;;;;8.20;6.90;;;-2.40;99.90;;;;;;5025060;28;21827;-65
2024/01/09 10:41:46;;;;;;;8.30;7.00;;;-2.40;99.90;;;;;;5040821;28;20528;-65
2024/01/09 10:44:15;;;;;;;9.33;6.90;;;-2.30;99.90;;;;;;5045248;28;20477;-65
2024/01/09 10:46:44;;;;;;;9.67;7.20;;;-2.30;99.90;;;;;;5039443;28;20466;-65
2024/01/09 10:49:14;;;;;;;8.67;6.83;;;-2.20;99.90;;;;;;5033786;28;20529;-66
2024/01/09 10:51:45;;;;;;;9.90;6.90;;;-2.10;99.90;;;;;;5021921;28;21089;-65
2024/01/09 10:54:18;;;;;;;7.33;6.50;;;-2.00;99.90;;;;;;5032577;28;20569;-65
2024/01/09 10:56:47;;;;;;;10.23;6.57;;;-1.90;99.90;;;;;;5035987;28;20479;-65
2024/01/09 10:59:17;;;;;;;10.30;7.90;;;-1.90;99.90;;;;;;5040045;28;20579;-65
2024/01/09 11:01:45;;;;;;;8.63;6.53;;;-1.80;99.90;;;;;;5036922;28;20993;-64
2024/01/09 11:04:13;;;;;;;8.47;5.87;;;-1.70;99.90;;;;;;5036235;28;20561;-65
2024/01/09 11:06:44;;;;;;;7.47;6.00;;;-1.70;99.90;;;;;;5037116;28;21051;-65
2024/01/09 11:09:16;;;;;;;7.87;6.47;;;-1.60;99.90;;;;;;5039105;28;21400;-65
2024/01/09 11:11:47;;;;;;;7.87;6.00;;;-1.50;99.90;;;;;;5035347;28;21470;-65
2024/01/09 11:14:16;;;;;;;7.93;6.13;;;-1.50;99.90;;;;;;5022145;28;20495;-65
2024/01/09 11:16:48;;;;;;;6.70;5.80;;;-1.40;99.90;;;;;;5027225;28;20487;-65
2024/01/09 11:19:16;;;;;;;7.60;6.10;;;-1.40;99.90;;;;;;5029770;28;20518;-66
2024/01/09 11:21:44;;;;;;;6.47;5.70;;;-1.30;99.90;;;;;;5025815;28;21777;-67
2024/01/09 11:24:14;;;;;;;6.37;5.77;;;-1.30;99.90;;;;;;5029615;28;21170;-66
2024/01/09 11:26:43;;;;;;;7.33;5.73;;;-1.30;99.90;;;;;;5027079;28;20506;-62
2024/01/09 11:29:13;;;;;;;7.87;5.93;;;-1.20;99.90;;;;;;5032314;28;21018;-63
2024/01/09 11:31:42;;;;;;;7.00;5.70;;;-1.20;99.90;;;;;;5036835;28;20872;-63
2024/01/09 11:34:26;;;;;;;5.47;4.80;;;-1.20;99.90;;;;;;5036144;28;21007;-63
2024/01/09 11:36:54;;;;;;;6.43;5.80;;;-1.20;99.90;;;;;;5032104;28;20562;-63
2024/01/09 11:39:23;;;;;;;6.20;5.50;;;-1.20;99.90;;;;;;5031574;28;20493;-62
2024/01/09 11:41:52;;;;;;;7.30;5.90;;;-1.20;99.90;;;;;;5034639;28;20922;-62
2024/01/09 11:44:20;;;;;;;7.93;6.10;;;-1.20;99.90;;;;;;5031018;28;20852;-63
2024/01/09 11:46:49;;;;;;;8.13;6.17;;;-1.20;99.90;;;;;;5032753;28;20980;-62
2024/01/09 11:49:17;;;;;;;6.43;5.67;;;-1.20;99.90;;;;;;5031384;28;20509;-63
2024/01/09 11:51:45;;;;;;;7.00;6.27;;;-1.20;99.90;;;;;;5028528;28;20918;-62
2024/01/09 11:54:13;;;;;;;8.50;6.10;;;-1.20;99.90;;;;;;5037005;28;20937;-63
2024/01/09 11:56:42;;;;;;;9.67;6.60;;;-1.20;99.90;;;;;;5038144;28;20583;-63
2024/01/09 11:59:10;;;;;;;7.53;6.47;;;-1.10;99.90;;;;;;5036975;28;20470;-63
2024/01/09 12:01:38;;;;;;;9.23;6.90;;;-1.10;99.90;;;;;;5030695;28;20506;-62
2024/01/09 12:04:07;;;;;;;8.47;5.83;;;-1.10;99.90;;;;;;5033427;28;20566;-62
2024/01/09 12:06:35;;;;;;;7.63;6.17;;;-1.10;99.90;;;;;;5027305;28;20471;-63
2024/01/09 12:09:03;;;;;;;6.87;5.80;;;-1.00;99.90;;;;;;5028348;28;20922;-63
2024/01/09 12:11:31;;;;;;;6.40;5.77;;;-1.00;99.90;;;;;;5029914;28;20470;-62
2024/01/09 12:14:01;;;;;;;9.20;6.60;;;-1.10;99.90;;;;;;5025026;28;20479;-63
2024/01/09 12:16:30;;;;;;;6.50;5.60;;;-1.00;99.90;;;;;;5025449;28;20505;-63
2024/01/09 12:18:59;;;;;;;6.53;5.50;;;-1.00;99.90;;;;;;5026437;28;20967;-63
2024/01/09 12:21:30;;;;;;;6.80;6.00;;;-1.00;99.90;;;;;;5027447;28;20490;-63
2024/01/09 12:24:00;;;;;;;6.70;5.80;;;-0.90;99.90;;;;;;5023360;28;20482;-62
2024/01/09 12:26:48;;;;;;;6.97;6.23;;;-0.90;99.90;;;;;;5032737;28;20443;-63
2024/01/09 12:29:18;;;;;;;9.60;7.03;;;-0.90;99.90;;;;;;5034691;28;20486;-62
2024/01/09 12:31:46;;;;;;;12.77;10.13;;;-0.80;99.90;;;;;;5030390;28;20466;-62
2024/01/09 12:34:14;;;;;;;9.27;7.30;;;-0.80;99.90;;;;;;5021491;28;20514;-62
2024/01/09 12:36:42;;;;;;;7.80;7.00;;;-0.70;99.90;;;;;;5024280;28;20999;-62
2024/01/09 12:39:12;;;;;;;7.60;6.50;;;-0.70;99.90;;;;;;5031606;28;20562;-63
2024/01/09 12:41:43;;;;;;;6.93;6.00;;;-0.70;99.90;;;;;;5031711;28;20507;-62
2024/01/09 12:44:12;;;;;;;6.60;5.77;;;-0.70;99.90;;;;;;5031392;28;20557;-61
2024/01/09 12:46:44;;;;;;;6.60;5.60;;;-0.70;99.90;;;;;;5026494;28;21655;-62
2024/01/09 12:49:13;;;;;;;6.57;5.77;;;-0.60;99.90;;;;;;5022917;28;20477;-62
2024/01/09 12:51:42;;;;;;;6.93;6.20;;;-0.60;99.90;;;;;;5027961;28;20467;-61